Time;durP1;ratioP1;P1;durP2;ratioP2;P2;SDS_P1;SDS_P2;PMS_P1;PMS_P2;Temp;Humidity;BMP_temperature;BMP_pressure;BME280_temperature;BME280_humidity;BME280_pressure;Samples;Min_cycle;Max_cycle;Signal;HPM_P1;HPM_P2
2022/06/29 00:00:23;;;;;;;2.40;2.20;;;22.50;66.10;;;;;;5035767;28;20472;-83
2022/06/29 00:02:52;;;;;;;2.77;2.10;;;22.50;67.20;;;;;;5052299;28;20542;-82
2022/06/29 00:05:21;;;;;;;2.10;2.00;;;22.50;67.70;;;;;;5049116;28;20486;-84
2022/06/29 00:07:49;;;;;;;3.17;2.33;;;22.50;68.10;;;;;;5049262;28;20453;-84
2022/06/29 00:10:17;;;;;;;3.03;2.67;;;22.50;68.30;;;;;;5048054;28;20444;-86
2022/06/29 00:12:45;;;;;;;2.40;2.20;;;22.50;68.50;;;;;;5044558;28;20525;-84
2022/06/29 00:15:13;;;;;;;3.70;2.47;;;22.50;69.00;;;;;;5045797;28;20476;-86
2022/06/29 00:17:40;;;;;;;3.63;2.40;;;22.50;69.30;;;;;;5046910;28;20472;-87
2022/06/29 00:20:10;;;;;;;2.20;1.97;;;22.50;69.40;;;;;;5047706;28;20448;-85
2022/06/29 00:22:38;;;;;;;3.40;2.40;;;22.40;70.20;;;;;;5032317;28;20456;-85
2022/06/29 00:25:05;;;;;;;3.10;2.30;;;22.30;69.90;;;;;;5028648;28;20469;-84
2022/06/29 00:27:32;;;;;;;2.70;2.50;;;22.30;70.70;;;;;;5048115;28;20459;-86
2022/06/29 00:29:59;;;;;;;4.10;2.50;;;22.20;71.30;;;;;;5028832;28;20456;-86
2022/06/29 00:32:26;;;;;;;2.53;2.33;;;22.10;71.90;;;;;;5047632;28;20568;-84
2022/06/29 00:34:53;;;;;;;3.87;2.77;;;22.00;72.50;;;;;;5028793;28;20494;-85
2022/06/29 00:37:19;;;;;;;2.97;2.33;;;22.00;73.10;;;;;;5035931;28;20558;-84
2022/06/29 00:39:46;;;;;;;2.77;2.57;;;22.00;73.10;;;;;;5055492;28;20441;-83
2022/06/29 00:42:13;;;;;;;2.57;2.30;;;22.10;73.10;;;;;;5037010;28;20455;-87
2022/06/29 00:44:39;;;;;;;4.87;2.90;;;22.20;72.90;;;;;;5056834;28;20498;-84
2022/06/29 00:47:07;;;;;;;2.60;2.37;;;22.20;72.70;;;;;;5054703;28;20524;-83
2022/06/29 00:49:34;;;;;;;2.73;2.53;;;22.30;73.00;;;;;;5031729;28;20456;-84
2022/06/29 00:52:08;;;;;;;2.30;2.20;;;22.20;72.90;;;;;;5046756;28;20467;-83
2022/06/29 00:54:54;;;;;;;3.13;2.67;;;22.40;72.90;;;;;;5046272;28;20562;-85
2022/06/29 00:57:26;;;;;;;3.00;2.80;;;22.20;73.30;;;;;;5037830;28;20464;-85
2022/06/29 00:59:56;;;;;;;4.87;2.53;;;22.10;74.40;;;;;;5032190;28;20461;-85
2022/06/29 01:02:25;;;;;;;3.57;2.37;;;21.90;75.30;;;;;;5032353;28;20503;-86
2022/06/29 01:04:52;;;;;;;3.93;2.83;;;21.80;76.40;;;;;;5031531;28;20826;-85
2022/06/29 01:07:23;;;;;;;3.10;2.37;;;21.80;76.80;;;;;;5044885;28;20475;-85
2022/06/29 01:09:50;;;;;;;3.33;2.70;;;21.70;77.20;;;;;;5057269;28;20452;-85
2022/06/29 01:12:17;;;;;;;3.50;2.83;;;21.70;78.10;;;;;;5049940;28;20464;-85
2022/06/29 01:14:45;;;;;;;3.90;2.67;;;21.60;78.50;;;;;;5031857;28;20472;-86
2022/06/29 01:17:13;;;;;;;3.03;2.40;;;21.70;79.10;;;;;;5058188;28;20504;-86
2022/06/29 01:19:41;;;;;;;2.53;2.33;;;21.70;79.30;;;;;;5050972;28;20468;-85
2022/06/29 01:22:15;;;;;;;2.70;2.50;;;21.70;79.00;;;;;;5067099;28;20457;-85
2022/06/29 01:24:46;;;;;;;4.40;2.83;;;21.80;78.70;;;;;;5052935;28;20931;-86
2022/06/29 01:27:15;;;;;;;2.80;2.60;;;21.80;78.90;;;;;;5029065;28;21229;-84
2022/06/29 01:29:42;;;;;;;3.10;2.90;;;21.80;79.30;;;;;;5048318;28;20480;-85
2022/06/29 01:32:09;;;;;;;2.97;2.70;;;21.80;79.50;;;;;;5031216;28;20474;-84
2022/06/29 01:34:37;;;;;;;2.53;2.33;;;21.80;79.60;;;;;;5046797;28;20544;-83
2022/06/29 01:37:05;;;;;;;2.63;2.43;;;21.70;79.70;;;;;;5048292;28;20433;-83
2022/06/29 01:39:33;;;;;;;3.53;3.00;;;21.70;81.00;;;;;;5048658;28;20536;-84
2022/06/29 01:42:00;;;;;;;2.50;2.30;;;21.70;80.90;;;;;;5031228;28;20452;-83
2022/06/29 01:44:27;;;;;;;3.40;2.50;;;21.70;82.30;;;;;;5048953;28;20485;-84
2022/06/29 01:46:54;;;;;;;4.03;2.77;;;21.60;82.80;;;;;;5030438;28;20487;-84
2022/06/29 01:49:20;;;;;;;2.63;2.43;;;21.60;83.40;;;;;;5046274;28;20658;-85
2022/06/29 01:51:47;;;;;;;2.63;2.43;;;21.50;84.10;;;;;;5045024;28;20456;-85
2022/06/29 01:54:14;;;;;;;3.00;2.10;;;21.50;84.90;;;;;;5044974;28;20484;-84
2022/06/29 01:56:41;;;;;;;2.63;2.43;;;21.60;85.40;;;;;;5028496;28;20543;-84
2022/06/29 01:59:08;;;;;;;2.70;2.50;;;21.60;85.60;;;;;;5027298;28;20572;-85
2022/06/29 02:01:34;;;;;;;3.20;2.37;;;21.60;85.80;;;;;;5026744;28;20479;-84
2022/06/29 02:04:01;;;;;;;3.10;2.90;;;21.60;86.20;;;;;;5048367;28;20476;-84
2022/06/29 02:06:28;;;;;;;3.30;2.50;;;21.60;86.70;;;;;;5036589;28;20472;-84
2022/06/29 02:08:55;;;;;;;3.20;2.77;;;21.60;87.30;;;;;;5032626;28;20508;-85
2022/06/29 02:11:23;;;;;;;3.23;2.23;;;21.50;87.70;;;;;;5054614;28;21192;-85
2022/06/29 02:13:51;;;;;;;2.77;1.90;;;21.60;88.20;;;;;;5053194;28;20452;-85
2022/06/29 02:16:18;;;;;;;2.67;2.47;;;21.50;88.50;;;;;;5051972;28;20460;-85
2022/06/29 02:18:44;;;;;;;2.80;2.43;;;21.50;88.90;;;;;;5054574;28;20513;-84
2022/06/29 02:21:11;;;;;;;2.80;2.37;;;21.50;89.10;;;;;;5064737;28;20459;-84
2022/06/29 02:23:38;;;;;;;2.50;2.40;;;21.50;89.40;;;;;;5064739;28;20487;-85
2022/06/29 02:26:06;;;;;;;3.10;2.90;;;21.50;89.60;;;;;;5061673;28;20469;-86
2022/06/29 02:28:33;;;;;;;3.53;2.60;;;21.60;90.00;;;;;;5036175;28;20449;-85
2022/06/29 02:36:31;;;;;;;3.67;2.60;;;21.70;90.10;;;;;;5046775;28;20456;-86
2022/06/29 02:39:00;;;;;;;2.60;2.40;;;21.70;90.30;;;;;;5028190;28;20456;-86
2022/06/29 02:41:27;;;;;;;2.70;2.50;;;21.50;90.20;;;;;;5046392;28;20456;-84
2022/06/29 02:43:54;;;;;;;2.53;2.30;;;21.50;90.70;;;;;;5045311;28;20488;-85
2022/06/29 02:46:20;;;;;;;4.73;2.63;;;21.50;91.30;;;;;;5028496;28;20468;-82
2022/06/29 02:48:47;;;;;;;2.77;2.50;;;21.40;91.30;;;;;;5046470;28;20456;-84
2022/06/29 02:51:14;;;;;;;2.77;2.57;;;21.30;91.30;;;;;;5045131;28;20460;-85
2022/06/29 02:53:40;;;;;;;3.10;2.80;;;21.20;91.30;;;;;;5024164;28;20491;-86
2022/06/29 02:56:07;;;;;;;2.50;2.30;;;21.20;91.50;;;;;;5049270;28;20443;-87
2022/06/29 02:58:34;;;;;;;3.10;2.30;;;21.20;91.30;;;;;;5038881;28;20452;-85
2022/06/29 03:01:01;;;;;;;2.77;2.57;;;21.20;91.00;;;;;;5028337;28;20464;-86
2022/06/29 03:03:31;;;;;;;3.13;2.93;;;21.10;91.60;;;;;;5048179;28;20476;-86
2022/06/29 03:05:58;;;;;;;2.73;2.53;;;21.10;91.40;;;;;;5047554;28;20473;-85
2022/06/29 03:08:24;;;;;;;3.10;2.73;;;21.10;91.20;;;;;;5046223;28;20460;-85
2022/06/29 03:10:51;;;;;;;2.73;2.50;;;21.10;91.20;;;;;;5048985;28;20464;-86
2022/06/29 03:13:18;;;;;;;2.87;2.40;;;21.10;91.10;;;;;;5030063;28;20464;-85
2022/06/29 03:15:45;;;;;;;4.60;2.50;;;21.20;90.70;;;;;;5046272;28;20476;-85
2022/06/29 03:18:11;;;;;;;4.70;2.83;;;21.20;90.60;;;;;;5048809;28;20460;-84
2022/06/29 03:20:38;;;;;;;5.70;3.00;;;20.90;91.20;;;;;;5050101;28;20466;-85
2022/06/29 03:23:05;;;;;;;2.97;2.50;;;20.80;91.60;;;;;;5033904;28;20457;-85
2022/06/29 03:25:32;;;;;;;2.80;2.60;;;20.70;92.30;;;;;;5052625;28;20476;-85
2022/06/29 03:27:59;;;;;;;3.30;2.73;;;20.80;92.40;;;;;;5056737;28;20451;-83
2022/06/29 03:30:25;;;;;;;3.93;2.93;;;21.00;92.70;;;;;;5040337;28;20568;-85
2022/06/29 03:32:52;;;;;;;3.50;3.03;;;20.90;92.80;;;;;;5019583;28;20475;-86
2022/06/29 03:35:19;;;;;;;2.93;2.63;;;20.70;93.20;;;;;;5021161;28;20480;-83
2022/06/29 03:37:46;;;;;;;3.20;2.90;;;20.70;93.10;;;;;;5026029;28;20452;-83
2022/06/29 03:40:12;;;;;;;3.27;2.93;;;20.60;93.10;;;;;;5045014;28;20464;-81
2022/06/29 03:42:39;;;;;;;3.70;3.17;;;20.60;93.60;;;;;;5044337;28;20463;-83
2022/06/29 03:45:06;;;;;;;3.00;2.80;;;20.60;93.40;;;;;;5026592;28;20479;-84
2022/06/29 03:47:33;;;;;;;3.30;2.70;;;20.60;93.50;;;;;;5046614;28;20486;-83
2022/06/29 03:50:00;;;;;;;3.00;2.77;;;20.60;93.20;;;;;;5040355;28;20992;-82
2022/06/29 03:52:26;;;;;;;4.80;2.73;;;20.60;92.80;;;;;;5043427;28;20456;-83
2022/06/29 03:54:53;;;;;;;4.40;2.30;;;20.70;93.00;;;;;;5040451;28;20532;-82
2022/06/29 03:57:20;;;;;;;5.13;3.43;;;20.60;93.10;;;;;;5043777;28;22103;-84
2022/06/29 03:59:46;;;;;;;4.77;2.70;;;20.60;93.00;;;;;;5031702;28;20467;-83
2022/06/29 04:02:13;;;;;;;3.10;2.57;;;20.70;92.80;;;;;;5028082;28;20617;-83
2022/06/29 04:04:40;;;;;;;5.37;2.53;;;20.80;92.50;;;;;;5050582;28;20513;-84
2022/06/29 04:07:07;;;;;;;4.07;2.80;;;21.00;92.40;;;;;;5036243;28;20460;-84
2022/06/29 04:09:34;;;;;;;4.73;3.30;;;21.10;91.90;;;;;;5054376;28;20555;-85
2022/06/29 04:12:01;;;;;;;3.07;2.77;;;20.80;92.10;;;;;;5058180;28;20451;-84
2022/06/29 04:14:28;;;;;;;2.83;2.60;;;20.60;92.20;;;;;;5043812;28;20503;-83
2022/06/29 04:16:57;;;;;;;3.10;2.20;;;20.60;92.40;;;;;;5039136;28;20459;-83
2022/06/29 04:19:25;;;;;;;3.33;3.03;;;20.60;92.20;;;;;;5060052;28;20838;-83
2022/06/29 04:21:53;;;;;;;3.53;2.20;;;20.60;91.70;;;;;;5041103;28;20452;-81
2022/06/29 04:24:20;;;;;;;3.83;3.10;;;20.70;91.20;;;;;;5061413;28;20479;-82
2022/06/29 04:26:47;;;;;;;3.50;2.77;;;20.70;90.80;;;;;;5063402;28;20471;-83
2022/06/29 04:29:14;;;;;;;3.13;2.70;;;20.60;91.30;;;;;;5055213;28;20471;-86
2022/06/29 04:31:41;;;;;;;6.27;3.00;;;20.80;91.60;;;;;;5073854;28;20486;-85
2022/06/29 04:34:08;;;;;;;4.07;2.83;;;20.80;91.80;;;;;;5075539;28;20555;-83
2022/06/29 04:36:34;;;;;;;4.30;3.03;;;20.70;91.60;;;;;;5077151;28;20495;-88
2022/06/29 04:39:02;;;;;;;6.50;3.03;;;20.80;91.80;;;;;;5077595;28;20479;-88
2022/06/29 04:41:29;;;;;;;4.53;2.87;;;21.10;88.00;;;;;;5058335;28;21474;-86
2022/06/29 04:43:55;;;;;;;5.77;3.47;;;21.00;87.00;;;;;;5060255;28;20471;-88
2022/06/29 04:46:22;;;;;;;5.20;2.93;;;20.80;88.70;;;;;;5057728;28;20465;-86
2022/06/29 04:49:00;;;;;;;4.00;2.90;;;20.70;90.00;;;;;;5056144;28;20473;-85
2022/06/29 04:51:30;;;;;;;3.50;3.03;;;20.80;90.00;;;;;;5053266;28;20756;-85
2022/06/29 04:53:58;;;;;;;4.83;2.77;;;20.70;90.80;;;;;;5050972;28;20528;-87
2022/06/29 04:56:27;;;;;;;3.00;2.67;;;20.70;91.00;;;;;;5049465;28;20591;-82
2022/06/29 04:58:55;;;;;;;3.97;2.87;;;20.70;91.20;;;;;;5065635;28;20467;-85
2022/06/29 05:01:23;;;;;;;4.77;3.10;;;20.70;91.90;;;;;;5050482;28;20479;-85
2022/06/29 05:03:51;;;;;;;3.33;2.87;;;20.70;93.70;;;;;;5050165;28;20464;-84
2022/06/29 05:06:20;;;;;;;4.23;3.80;;;20.70;94.60;;;;;;5030540;28;20452;-83
2022/06/29 05:08:48;;;;;;;4.13;3.53;;;20.40;95.80;;;;;;5032187;28;20459;-86
2022/06/29 05:11:17;;;;;;;4.37;3.60;;;20.20;96.10;;;;;;5031151;28;20547;-83
2022/06/29 05:13:45;;;;;;;8.20;5.30;;;20.30;96.00;;;;;;5051291;28;22031;-84
2022/06/29 05:16:12;;;;;;;9.27;6.20;;;20.40;95.40;;;;;;5048187;28;21218;-86
2022/06/29 05:18:39;;;;;;;7.97;6.10;;;20.40;95.30;;;;;;5048749;28;20451;-84
2022/06/29 05:21:06;;;;;;;10.10;5.63;;;20.50;95.50;;;;;;5030474;28;20453;-86
2022/06/29 05:23:33;;;;;;;10.00;5.43;;;20.60;95.20;;;;;;5049560;28;20482;-84
2022/06/29 05:26:01;;;;;;;4.93;4.30;;;20.50;95.30;;;;;;5027478;28;20547;-84
2022/06/29 05:28:27;;;;;;;7.77;4.00;;;20.30;95.20;;;;;;5049039;28;20548;-84
2022/06/29 05:30:54;;;;;;;4.43;3.70;;;20.30;95.30;;;;;;5030140;28;20464;-83
2022/06/29 05:33:21;;;;;;;7.20;3.70;;;20.30;95.00;;;;;;5031238;28;20459;-84
2022/06/29 05:35:48;;;;;;;5.13;2.97;;;20.30;94.80;;;;;;5053385;28;20472;-86
2022/06/29 05:38:15;;;;;;;5.60;3.60;;;20.40;94.80;;;;;;5052039;28;20543;-84
2022/06/29 05:40:43;;;;;;;4.17;3.30;;;20.80;93.60;;;;;;5056388;28;20499;-84
2022/06/29 05:43:11;;;;;;;4.13;3.20;;;20.90;93.00;;;;;;5058689;28;20460;-82
2022/06/29 05:45:37;;;;;;;5.43;4.07;;;21.00;92.20;;;;;;5061346;28;20943;-85
2022/06/29 05:48:04;;;;;;;4.40;2.93;;;20.80;91.80;;;;;;5036399;28;20941;-85
2022/06/29 05:50:31;;;;;;;4.17;3.20;;;20.70;91.90;;;;;;5052430;28;20922;-84
2022/06/29 05:52:59;;;;;;;4.40;3.47;;;20.70;91.90;;;;;;5053157;28;20452;-82
2022/06/29 05:55:25;;;;;;;7.57;3.57;;;20.60;92.50;;;;;;5054805;28;21082;-82
2022/06/29 05:57:52;;;;;;;4.67;2.90;;;20.80;92.80;;;;;;5035969;28;20448;-85
2022/06/29 06:00:19;;;;;;;5.53;3.60;;;21.10;91.70;;;;;;5044313;28;20440;-85
2022/06/29 06:02:51;;;;;;;6.07;3.80;;;21.10;91.20;;;;;;5054731;28;20474;-83
2022/06/29 06:05:17;;;;;;;3.97;3.67;;;21.20;91.40;;;;;;5048325;28;20495;-84
2022/06/29 06:07:44;;;;;;;7.37;3.93;;;21.30;91.10;;;;;;5070779;28;20443;-85
2022/06/29 06:10:11;;;;;;;5.80;4.80;;;21.30;90.90;;;;;;5048479;28;20444;-83
2022/06/29 06:12:37;;;;;;;4.87;3.37;;;21.10;90.60;;;;;;5044826;28;20456;-86
2022/06/29 06:15:05;;;;;;;4.00;3.70;;;21.00;90.50;;;;;;5044621;28;20484;-85
2022/06/29 06:17:32;;;;;;;3.90;3.60;;;20.80;90.80;;;;;;5049656;28;20875;-85
2022/06/29 06:20:01;;;;;;;4.20;3.80;;;21.10;91.00;;;;;;5027424;28;20548;-85
2022/06/29 06:22:29;;;;;;;3.47;3.27;;;21.30;91.10;;;;;;5042164;28;20457;-84
2022/06/29 06:24:55;;;;;;;4.40;3.70;;;21.30;91.50;;;;;;5022648;28;21718;-84
2022/06/29 06:27:22;;;;;;;6.20;3.90;;;21.30;92.00;;;;;;5044257;28;20448;-84
2022/06/29 06:29:49;;;;;;;4.03;3.63;;;21.20;91.80;;;;;;5044061;28;20444;-83
2022/06/29 06:32:15;;;;;;;9.10;3.50;;;21.00;92.00;;;;;;5042988;28;20567;-85
2022/06/29 06:34:42;;;;;;;5.30;3.40;;;21.10;92.30;;;;;;5046395;28;21214;-85
2022/06/29 06:37:09;;;;;;;4.40;3.87;;;21.00;91.80;;;;;;5044250;28;20862;-83
2022/06/29 06:39:35;;;;;;;4.90;2.90;;;21.00;91.70;;;;;;5046423;28;20458;-85
2022/06/29 06:42:03;;;;;;;4.70;3.27;;;20.80;91.70;;;;;;5029736;28;20461;-83
2022/06/29 06:44:30;;;;;;;3.63;3.30;;;20.80;91.90;;;;;;5045910;28;20558;-83
2022/06/29 06:46:59;;;;;;;3.20;3.00;;;21.10;91.10;;;;;;5029401;28;20456;-84
2022/06/29 06:49:26;;;;;;;4.50;2.60;;;21.10;90.30;;;;;;5046097;28;20499;-85
2022/06/29 06:51:52;;;;;;;4.30;2.73;;;21.20;90.10;;;;;;5024186;28;21133;-84
2022/06/29 06:54:19;;;;;;;2.97;2.77;;;21.00;90.20;;;;;;5045085;28;20571;-83
2022/06/29 06:56:46;;;;;;;3.20;2.80;;;20.90;90.60;;;;;;5029217;28;20456;-85
2022/06/29 06:59:13;;;;;;;3.03;2.50;;;21.00;90.40;;;;;;5029849;28;20451;-83
2022/06/29 07:01:40;;;;;;;3.80;3.00;;;20.80;90.10;;;;;;5048998;28;20448;-84
2022/06/29 07:04:11;;;;;;;5.00;3.50;;;20.70;90.30;;;;;;5028799;28;20483;-85
2022/06/29 07:06:38;;;;;;;4.60;3.40;;;21.10;89.60;;;;;;5054045;28;20457;-85
2022/06/29 07:09:04;;;;;;;4.23;3.80;;;21.20;90.00;;;;;;5057037;28;20485;-84
2022/06/29 07:11:32;;;;;;;5.63;4.50;;;21.50;90.00;;;;;;5035150;28;20478;-84
2022/06/29 07:13:58;;;;;;;8.67;4.60;;;21.40;89.90;;;;;;5055002;28;20804;-84
2022/06/29 07:16:25;;;;;;;6.00;5.40;;;21.50;90.10;;;;;;5029912;28;21006;-84
2022/06/29 07:18:53;;;;;;;4.80;4.40;;;21.60;90.20;;;;;;5045728;28;20452;-84
2022/06/29 07:21:20;;;;;;;5.43;4.10;;;21.60;89.20;;;;;;5029942;28;20453;-82
2022/06/29 07:23:46;;;;;;;4.13;3.83;;;21.40;89.80;;;;;;5030125;28;20447;-86
2022/06/29 07:26:13;;;;;;;4.27;3.87;;;21.10;89.80;;;;;;5057698;28;20479;-84
2022/06/29 07:28:40;;;;;;;7.30;4.10;;;21.00;90.00;;;;;;5048711;28;20817;-85
2022/06/29 07:31:07;;;;;;;5.10;4.60;;;20.90;90.30;;;;;;5029937;28;20496;-83
2022/06/29 07:33:34;;;;;;;7.07;5.20;;;21.40;90.00;;;;;;5053167;28;20440;-85
2022/06/29 07:36:01;;;;;;;4.93;4.43;;;21.40;90.10;;;;;;5029522;28;20471;-84
2022/06/29 07:38:28;;;;;;;5.13;4.03;;;21.70;89.10;;;;;;5028542;28;20702;-84
2022/06/29 07:40:54;;;;;;;5.90;4.57;;;21.60;89.10;;;;;;5029509;28;20456;-85
2022/06/29 07:43:21;;;;;;;4.77;3.80;;;21.50;89.70;;;;;;5046110;28;20925;-84
2022/06/29 07:45:47;;;;;;;3.70;3.40;;;21.60;89.80;;;;;;5044265;28;20480;-84
2022/06/29 07:48:14;;;;;;;3.70;3.27;;;21.60;90.10;;;;;;5032841;28;20537;-86
2022/06/29 07:50:41;;;;;;;3.73;3.00;;;21.60;90.30;;;;;;5050511;28;21468;-84
2022/06/29 07:53:08;;;;;;;3.10;2.83;;;21.70;90.60;;;;;;5035102;28;20452;-85
2022/06/29 07:55:34;;;;;;;4.47;3.97;;;21.60;91.20;;;;;;5034383;28;20467;-85
2022/06/29 07:58:01;;;;;;;5.40;3.60;;;21.60;91.40;;;;;;5033806;28;20476;-87
2022/06/29 08:00:28;;;;;;;4.03;3.60;;;21.50;91.30;;;;;;5061869;28;20499;-80
2022/06/29 08:02:55;;;;;;;4.83;3.23;;;21.40;91.60;;;;;;5051093;28;20443;-86
2022/06/29 08:05:23;;;;;;;3.40;3.10;;;21.30;91.90;;;;;;5050410;28;20483;-82
2022/06/29 08:07:50;;;;;;;5.70;3.30;;;21.60;91.30;;;;;;5043286;28;20436;-84
2022/06/29 08:10:19;;;;;;;5.53;5.03;;;21.60;90.90;;;;;;5065069;28;20441;-83
2022/06/29 08:12:45;;;;;;;5.70;5.30;;;21.50;89.70;;;;;;5037331;28;20462;-81
2022/06/29 08:15:12;;;;;;;9.50;5.23;;;21.30;88.20;;;;;;5045893;28;20488;-83
2022/06/29 08:17:39;;;;;;;6.40;5.77;;;21.70;86.90;;;;;;5026766;28;21099;-80
2022/06/29 08:20:06;;;;;;;6.20;5.60;;;21.50;87.00;;;;;;5029540;28;20463;-82
2022/06/29 08:22:33;;;;;;;6.47;5.97;;;21.60;86.90;;;;;;5047615;28;20547;-85
2022/06/29 08:25:00;;;;;;;6.40;5.10;;;21.70;88.70;;;;;;5048916;28;20973;-85
2022/06/29 08:27:26;;;;;;;6.40;5.90;;;21.60;88.40;;;;;;5031219;28;20559;-85
2022/06/29 08:30:13;;;;;;;5.07;4.60;;;21.90;87.50;;;;;;5047752;28;20460;-85
2022/06/29 08:32:41;;;;;;;4.40;4.00;;;21.60;88.00;;;;;;5046482;28;21163;-84
2022/06/29 08:35:08;;;;;;;6.50;4.30;;;21.50;88.30;;;;;;5047850;28;20484;-83
2022/06/29 08:37:39;;;;;;;4.43;3.13;;;21.40;88.30;;;;;;5048000;28;21196;-85
2022/06/29 08:40:12;;;;;;;5.17;3.80;;;21.40;89.10;;;;;;5031308;28;20475;-86
2022/06/29 08:42:39;;;;;;;7.50;3.33;;;21.80;88.20;;;;;;5053430;28;20448;-85
2022/06/29 08:45:07;;;;;;;3.47;3.17;;;22.10;86.70;;;;;;5036884;28;20523;-85
2022/06/29 08:47:35;;;;;;;4.93;3.23;;;22.20;85.90;;;;;;5033744;28;20479;-80
2022/06/29 08:50:07;;;;;;;3.57;3.13;;;22.00;86.00;;;;;;5034982;28;20471;-85
2022/06/29 08:52:38;;;;;;;4.60;3.70;;;21.70;86.90;;;;;;5051520;28;20440;-83
2022/06/29 08:55:07;;;;;;;3.70;3.40;;;21.60;88.00;;;;;;5030316;28;20468;-82
2022/06/29 08:57:40;;;;;;;3.47;3.17;;;21.60;88.40;;;;;;5046135;28;20459;-84
2022/06/29 09:00:09;;;;;;;4.53;3.40;;;22.00;86.10;;;;;;5028988;28;20487;-84
2022/06/29 09:02:36;;;;;;;5.67;4.47;;;21.90;85.80;;;;;;5047543;28;20984;-85
2022/06/29 09:05:04;;;;;;;8.00;4.00;;;22.10;85.80;;;;;;5047628;28;20488;-84
2022/06/29 09:07:31;;;;;;;4.10;3.77;;;21.90;85.70;;;;;;5047424;28;20448;-84
2022/06/29 09:10:03;;;;;;;4.30;3.83;;;21.70;86.40;;;;;;5033365;28;20459;-85
2022/06/29 09:12:33;;;;;;;5.10;4.60;;;21.60;87.30;;;;;;5050569;28;20479;-84
2022/06/29 09:15:03;;;;;;;5.90;5.30;;;21.60;87.90;;;;;;5029748;28;20490;-86
2022/06/29 09:17:32;;;;;;;5.77;4.93;;;21.90;87.50;;;;;;5049562;28;20539;-84
2022/06/29 09:19:59;;;;;;;4.87;4.37;;;21.90;88.10;;;;;;5030278;28;20460;-86
2022/06/29 09:22:57;;;;;;;4.83;4.17;;;21.90;87.50;;;;;;5034108;28;20456;-85
2022/06/29 09:25:30;;;;;;;5.83;5.07;;;22.20;87.10;;;;;;5046084;28;20500;-85
2022/06/29 09:27:59;;;;;;;7.10;4.80;;;22.60;85.20;;;;;;5046622;28;20461;-83
2022/06/29 09:30:29;;;;;;;5.43;4.93;;;22.50;85.50;;;;;;5046493;28;22352;-85
2022/06/29 09:33:05;;;;;;;6.23;3.20;;;22.50;86.00;;;;;;5046826;28;20559;-84
2022/06/29 09:35:33;;;;;;;6.30;4.77;;;23.10;84.80;;;;;;5048643;28;20491;-85
2022/06/29 09:38:23;;;;;;;5.50;5.03;;;23.30;83.90;;;;;;5055636;28;20475;-83
2022/06/29 09:41:01;;;;;;;5.00;4.13;;;23.60;82.70;;;;;;5055332;28;20520;-80
2022/06/29 09:43:29;;;;;;;5.63;4.53;;;23.60;82.10;;;;;;5054685;28;20514;-84
2022/06/29 09:45:57;;;;;;;8.63;4.60;;;23.80;81.70;;;;;;5055772;28;20484;-86
2022/06/29 09:48:26;;;;;;;6.83;4.97;;;24.00;80.90;;;;;;5037417;28;20465;-84
2022/06/29 09:50:54;;;;;;;5.73;5.07;;;23.70;80.80;;;;;;5033615;28;20505;-85
2022/06/29 09:53:36;;;;;;;6.67;4.70;;;23.70;82.90;;;;;;5027521;28;21593;-86
2022/06/29 09:56:05;;;;;;;5.50;4.70;;;23.70;82.30;;;;;;5047662;28;20518;-85
2022/06/29 09:58:48;;;;;;;5.57;5.07;;;24.20;81.10;;;;;;5045440;28;20465;-85
2022/06/29 10:04:07;;;;;;;5.37;4.87;;;24.50;80.50;;;;;;5046317;28;20491;-83
2022/06/29 10:06:34;;;;;;;7.53;5.37;;;25.40;76.50;;;;;;5047061;28;20520;-86
2022/06/29 10:09:03;;;;;;;6.27;5.07;;;25.70;73.90;;;;;;5031323;28;20917;-83
2022/06/29 10:15:24;;;;;;;4.87;4.27;;;26.40;68.70;;;;;;5046241;28;20476;-84
2022/06/29 10:18:20;;;;;;;5.20;4.80;;;27.20;66.80;;;;;;5050256;28;20488;-83
2022/06/29 10:20:48;;;;;;;4.77;4.37;;;27.10;64.80;;;;;;5016146;28;20522;-83
2022/06/29 10:23:44;;;;;;;5.10;4.70;;;27.00;65.20;;;;;;5046874;28;20453;-82
2022/06/29 10:26:33;;;;;;;4.53;4.13;;;26.60;66.20;;;;;;5053464;28;20482;-83
2022/06/29 10:29:06;;;;;;;4.10;3.80;;;26.40;66.40;;;;;;5029927;28;20443;-83
2022/06/29 10:31:51;;;;;;;5.03;3.77;;;26.00;67.00;;;;;;5048130;28;20945;-82
2022/06/29 10:37:07;;;;;;;3.63;3.33;;;26.00;66.70;;;;;;5050808;28;20485;-82
2022/06/29 10:39:46;;;;;;;7.87;3.80;;;25.30;68.10;;;;;;5033358;28;20542;-83
2022/06/29 10:45:13;;;;;;;2.83;2.63;;;25.70;64.30;;;;;;5049157;28;20479;-84
2022/06/29 10:47:44;;;;;;;2.53;2.33;;;25.50;63.80;;;;;;5034176;28;20535;-84
2022/06/29 10:50:21;;;;;;;2.90;2.67;;;25.60;61.20;;;;;;5039098;28;20518;-81
2022/06/29 10:52:54;;;;;;;3.83;2.90;;;25.30;62.60;;;;;;5053324;28;20967;-83
2022/06/29 10:55:23;;;;;;;2.60;2.13;;;25.50;63.40;;;;;;5036343;28;20464;-83
2022/06/29 10:57:51;;;;;;;4.17;2.87;;;25.90;60.00;;;;;;5053068;28;20456;-86
2022/06/29 11:00:23;;;;;;;3.43;3.13;;;25.80;60.30;;;;;;5035856;28;20456;-82
2022/06/29 11:02:50;;;;;;;2.80;2.60;;;25.70;61.20;;;;;;5035417;28;20460;-81
2022/06/29 11:05:17;;;;;;;3.20;3.00;;;25.70;61.70;;;;;;5063110;28;21787;-83
2022/06/29 11:13:23;;;;;;;4.60;3.10;;;27.00;60.00;;;;;;5049010;28;20516;-85
2022/06/29 11:15:51;;;;;;;2.97;2.70;;;27.30;59.20;;;;;;5045615;28;20486;-85
2022/06/29 11:18:20;;;;;;;2.20;2.07;;;27.40;58.60;;;;;;5045262;28;20461;-83
2022/06/29 11:20:49;;;;;;;4.43;2.20;;;27.40;58.20;;;;;;5044237;28;20488;-83
2022/06/29 11:23:20;;;;;;;3.97;2.60;;;27.00;58.60;;;;;;5048495;28;20448;-83
2022/06/29 11:25:49;;;;;;;4.73;2.43;;;26.60;59.00;;;;;;5046035;28;21326;-83
2022/06/29 11:28:23;;;;;;;2.63;2.43;;;27.40;58.80;;;;;;5046593;28;20461;-83
2022/06/29 11:31:04;;;;;;;2.80;2.60;;;28.60;55.50;;;;;;5033204;28;20470;-80
2022/06/29 11:33:38;;;;;;;3.73;3.17;;;29.00;54.10;;;;;;5054983;28;20452;-84
2022/06/29 11:36:15;;;;;;;2.33;2.23;;;29.20;52.40;;;;;;5037859;28;20472;-84
2022/06/29 11:38:45;;;;;;;3.40;2.30;;;29.10;50.80;;;;;;5064614;28;20508;-84
2022/06/29 11:41:19;;;;;;;2.53;2.33;;;28.60;50.00;;;;;;5052443;28;20460;-86
2022/06/29 11:44:01;;;;;;;3.00;2.80;;;28.50;50.40;;;;;;5056407;28;20457;-85
2022/06/29 11:46:32;;;;;;;2.40;2.30;;;28.30;50.40;;;;;;5033027;28;20492;-86
2022/06/29 11:51:58;;;;;;;3.00;2.80;;;27.80;51.90;;;;;;5052454;28;20435;-86
2022/06/29 11:54:37;;;;;;;4.13;2.47;;;28.10;52.10;;;;;;5032130;28;20517;-87
2022/06/29 11:57:10;;;;;;;3.93;2.90;;;28.40;52.20;;;;;;5028822;28;20448;-85
2022/06/29 11:59:39;;;;;;;5.20;3.00;;;28.20;52.30;;;;;;5046628;28;20448;-85
2022/06/29 12:02:07;;;;;;;3.57;3.27;;;28.90;51.30;;;;;;5046581;28;20447;-83
2022/06/29 12:04:37;;;;;;;3.63;3.30;;;29.00;51.40;;;;;;5057407;28;20466;-84
2022/06/29 12:07:09;;;;;;;3.33;2.60;;;29.30;50.50;;;;;;5044017;28;20538;-83
2022/06/29 12:09:38;;;;;;;3.10;2.80;;;28.70;51.30;;;;;;5045616;28;20456;-84
2022/06/29 12:12:14;;;;;;;3.70;3.20;;;29.00;51.90;;;;;;5045782;28;20470;-85
2022/06/29 12:14:42;;;;;;;3.40;3.17;;;29.70;50.10;;;;;;5046554;28;20580;-84
2022/06/29 12:17:11;;;;;;;3.00;2.70;;;29.40;50.40;;;;;;5053344;28;20517;-85
2022/06/29 12:19:41;;;;;;;3.30;2.97;;;29.60;50.40;;;;;;5032679;28;20436;-85
2022/06/29 12:22:08;;;;;;;4.77;2.60;;;29.70;50.40;;;;;;5028496;28;20444;-86
2022/06/29 12:24:35;;;;;;;7.63;3.20;;;29.80;49.70;;;;;;5033599;28;20479;-85
2022/06/29 12:27:02;;;;;;;3.93;3.10;;;29.80;49.30;;;;;;5047623;28;22393;-83
2022/06/29 12:29:29;;;;;;;5.77;3.30;;;29.80;50.30;;;;;;5045249;28;20459;-83
2022/06/29 12:31:56;;;;;;;3.10;2.80;;;29.40;49.90;;;;;;5045055;28;20448;-83
2022/06/29 12:34:23;;;;;;;3.83;2.97;;;29.40;50.70;;;;;;5030483;28;20476;-84
2022/06/29 12:36:56;;;;;;;2.87;2.57;;;30.40;49.20;;;;;;5048738;28;20456;-84
2022/06/29 12:39:23;;;;;;;3.73;2.90;;;30.40;48.30;;;;;;5030003;28;20603;-84
2022/06/29 12:41:49;;;;;;;4.50;3.27;;;29.90;49.40;;;;;;5048723;28;20448;-84
2022/06/29 12:44:16;;;;;;;2.60;2.40;;;29.90;49.60;;;;;;5050975;28;20622;-84
2022/06/29 12:46:43;;;;;;;3.23;2.90;;;30.10;49.20;;;;;;5033317;28;20542;-84
2022/06/29 12:49:10;;;;;;;3.27;2.93;;;30.00;49.40;;;;;;5053568;28;20454;-85
2022/06/29 12:51:37;;;;;;;3.13;2.73;;;28.90;51.20;;;;;;5039864;28;20448;-86
2022/06/29 12:54:04;;;;;;;3.20;2.90;;;28.50;52.40;;;;;;5065695;28;20460;-85
2022/06/29 12:56:30;;;;;;;2.57;2.40;;;29.40;51.60;;;;;;5040414;28;21490;-82
2022/06/29 12:58:57;;;;;;;2.63;2.53;;;30.00;49.80;;;;;;5042350;28;20455;-84
2022/06/29 13:01:24;;;;;;;3.00;2.70;;;29.70;49.80;;;;;;5048418;28;20473;-81
2022/06/29 13:03:50;;;;;;;3.10;2.80;;;29.10;51.50;;;;;;5042830;28;20574;-83
2022/06/29 13:06:17;;;;;;;3.63;2.63;;;29.20;51.60;;;;;;5020954;28;20504;-84
2022/06/29 13:08:44;;;;;;;5.27;2.93;;;29.00;52.10;;;;;;5043724;28;20470;-85
2022/06/29 13:11:11;;;;;;;3.70;2.90;;;29.40;51.80;;;;;;5040065;28;20463;-83
2022/06/29 13:13:39;;;;;;;3.13;2.93;;;29.60;51.50;;;;;;5042197;28;20471;-84
2022/06/29 13:16:07;;;;;;;3.43;3.13;;;29.80;51.60;;;;;;5025052;28;21280;-85
2022/06/29 13:18:35;;;;;;;5.13;3.33;;;29.90;51.50;;;;;;5028141;28;21209;-83
2022/06/29 13:21:02;;;;;;;3.00;2.80;;;30.20;50.60;;;;;;5044221;28;21710;-82